createdAt,value
2019-04-14T00:02:16.940Z,98301.77
2019-04-14T00:04:50.764Z,98301.90
2019-04-14T00:07:23.130Z,98297.23
2019-04-14T00:09:56.264Z,98304.16
2019-04-14T00:12:29.407Z,98300.14
2019-04-14T00:15:02.417Z,98303.95
2019-04-14T00:17:34.850Z,98300.08
2019-04-14T00:20:07.453Z,98300.84
2019-04-14T00:22:40.519Z,98293.16
2019-04-14T00:25:13.050Z,98297.66
2019-04-14T00:27:45.913Z,98298.25
2019-04-14T00:30:18.896Z,98298.78
2019-04-14T00:32:55.275Z,98295.73
2019-04-14T00:35:51.960Z,98303.76
2019-04-14T00:38:28.061Z,98298.66
2019-04-14T00:41:43.382Z,98289.41
2019-04-14T00:44:27.632Z,98289.64
2019-04-14T00:47:17.976Z,98286.03
2019-04-14T00:49:50.890Z,98278.87
2019-04-14T00:52:23.379Z,98280.49
2019-04-14T00:54:56.428Z,98283.45
2019-04-14T00:57:29.485Z,98284.30
2019-04-14T01:00:01.813Z,98282.22
2019-04-14T01:02:36.367Z,98285.20
2019-04-14T01:05:08.915Z,98281.19
2019-04-14T01:07:41.302Z,98279.36
2019-04-14T01:10:14.987Z,98275.69
2019-04-14T01:12:47.461Z,98270.98
2019-04-14T01:15:20.113Z,98268.93
2019-04-14T01:17:52.881Z,98262.70
2019-04-14T01:20:25.340Z,98256.10
2019-04-14T01:22:57.487Z,98255.08
2019-04-14T01:25:30.306Z,98248.69
2019-04-14T01:28:02.530Z,98248.69
2019-04-14T01:30:35.119Z,98255.75
2019-04-14T01:33:07.615Z,98260.62
2019-04-14T01:35:39.997Z,98271.39
2019-04-14T01:38:12.534Z,98269.73
2019-04-14T01:40:44.555Z,98270.69
2019-04-14T01:43:16.748Z,98272.05
2019-04-14T01:45:59.594Z,98267.34
2019-04-14T01:48:23.624Z,98266.19
2019-04-14T01:51:11.726Z,98266.45
2019-04-14T01:53:51.411Z,98272.38
2019-04-14T01:56:42.716Z,98268.63
2019-04-14T01:59:15.291Z,98273.38
2019-04-14T02:01:48.125Z,98278.83
2019-04-14T02:04:20.332Z,98277.34
2019-04-14T02:06:53.012Z,98275.76
2019-04-14T02:09:25.186Z,98280.32
2019-04-14T02:11:57.481Z,98282.27
2019-04-14T02:14:30.141Z,98288.33
2019-04-14T02:17:04.943Z,98289.38
2019-04-14T02:19:37.198Z,98294.42
2019-04-14T02:22:09.548Z,98295.05
2019-04-14T02:24:43.799Z,98299.20
2019-04-14T02:27:18.880Z,98298.94
2019-04-14T02:29:51.645Z,98297.95
2019-04-14T02:32:49.366Z,98301.56
2019-04-14T02:38:03.580Z,98301.17
2019-04-14T02:40:39.309Z,98299.45
2019-04-14T02:43:04.710Z,98293.12
2019-04-14T02:48:31.783Z,98289.17
2019-04-14T02:50:49.823Z,98283.17
2019-04-14T02:55:57.702Z,98277.25
2019-04-14T02:58:50.054Z,98275.55
2019-04-14T03:03:39.197Z,98292.84
2019-04-14T03:06:05.693Z,98290.07
2019-04-14T03:11:21.044Z,98288.52
2019-04-14T03:13:51.741Z,98291.70
2019-04-14T03:16:31.358Z,98300.41
2019-04-14T03:19:06.748Z,98288.41
2019-04-14T03:22:13.126Z,98288.08
2019-04-14T03:24:46.574Z,98284.67
2019-04-14T03:30:45.190Z,98281.22
2019-04-14T03:33:17.314Z,98279.67
2019-04-14T03:35:51.948Z,98274.47
2019-04-14T03:38:07.253Z,98276.13
2019-04-14T03:40:37.658Z,98276.52
2019-04-14T03:43:17.069Z,98282.15
2019-04-14T03:50:45.499Z,98293.25
2019-04-14T03:56:22.930Z,98286.13
2019-04-14T03:58:55.373Z,98291.56
2019-04-14T04:01:28.566Z,98279.77
2019-04-14T04:04:00.689Z,98282.52
2019-04-14T04:06:33.499Z,98281.66
2019-04-14T04:09:08.357Z,98289.81
2019-04-14T04:11:41.214Z,98292.86
2019-04-14T04:14:13.970Z,98294.64
2019-04-14T04:17:12.267Z,98300.08
2019-04-14T04:19:57.796Z,98300.14
2019-04-14T04:22:47.665Z,98299.15
2019-04-14T04:25:31.156Z,98302.66
2019-04-14T04:28:30.702Z,98304.72
2019-04-14T04:31:10.999Z,98308.26
2019-04-14T04:33:54.364Z,98312.23
2019-04-14T04:36:48.765Z,98312.60
2019-04-14T04:39:43.202Z,98311.70
2019-04-14T04:42:15.472Z,98315.65
2019-04-14T04:44:48.699Z,98322.94
2019-04-14T04:47:23.033Z,98321.58
2019-04-14T04:49:55.452Z,98317.30
2019-04-14T04:52:28.088Z,98327.02
2019-04-14T04:55:00.236Z,98325.66
2019-04-14T04:57:32.811Z,98327.78
2019-04-14T05:00:05.649Z,98322.55
2019-04-14T05:02:37.654Z,98328.17
2019-04-14T05:06:04.651Z,98324.17
2019-04-14T05:08:39.151Z,98322.94
2019-04-14T05:11:20.679Z,98325.76
2019-04-14T05:13:53.344Z,98322.14
2019-04-14T05:16:26.011Z,98327.78
2019-04-14T05:19:10.628Z,98328.80
2019-04-14T05:21:32.127Z,98328.38
2019-04-14T05:24:04.953Z,98335.53
2019-04-14T05:26:37.364Z,98341.86
2019-04-14T05:29:09.992Z,98339.08
2019-04-14T05:31:42.575Z,98340.17
2019-04-14T05:34:15.062Z,98341.53
2019-04-14T05:36:47.847Z,98338.81
2019-04-14T05:39:20.022Z,98347.03
2019-04-14T05:42:00.313Z,98346.97
2019-04-14T05:44:25.435Z,98351.47
2019-04-14T05:46:57.864Z,98350.58
2019-04-14T05:49:39.100Z,98351.74
2019-04-14T05:52:05.582Z,98355.75
2019-04-14T05:54:38.277Z,98363.01
2019-04-14T05:57:11.148Z,98363.07
2019-04-14T05:59:44.058Z,98370.29
2019-04-14T06:02:15.968Z,98368.88
2019-04-14T06:04:48.238Z,98376.98
2019-04-14T06:07:20.217Z,98377.94
2019-04-14T06:09:52.110Z,98376.66
2019-04-14T06:12:23.948Z,98381.12
2019-04-14T06:14:55.593Z,98374.87
2019-04-14T06:17:27.111Z,98382.74
2019-04-14T06:19:58.675Z,98378.79
2019-04-14T06:22:30.215Z,98381.38
2019-04-14T06:25:02.098Z,98380.09
2019-04-14T06:27:34.009Z,98384.16
2019-04-14T06:30:35.276Z,98374.95
2019-04-14T06:33:24.860Z,98375.59
2019-04-14T06:36:18.397Z,98369.97
2019-04-14T06:38:53.498Z,98370.03
2019-04-14T06:41:25.094Z,98372.87
2019-04-14T06:43:56.684Z,98371.64
2019-04-14T06:46:28.265Z,98370.74
2019-04-14T06:48:59.836Z,98370.89
2019-04-14T06:51:31.464Z,98375.00
2019-04-14T06:54:03.077Z,98375.83
2019-04-14T06:56:34.732Z,98376.15
2019-04-14T06:59:06.524Z,98382.01
2019-04-14T07:01:39.069Z,98380.56
2019-04-14T07:04:10.830Z,98382.25
2019-04-14T07:06:42.522Z,98378.58
2019-04-14T07:09:14.078Z,98373.71
2019-04-14T07:11:45.706Z,98377.06
2019-04-14T07:14:17.287Z,98368.84
2019-04-14T07:16:51.314Z,98371.50
2019-04-14T07:19:23.230Z,98378.07
2019-04-14T07:21:54.857Z,98377.53
2019-04-14T07:24:26.460Z,98379.28
2019-04-14T07:26:58.084Z,98379.05
2019-04-14T07:29:37.916Z,98382.03
2019-04-14T07:32:27.351Z,98376.84
2019-04-14T07:35:11.181Z,98371.34
2019-04-14T07:37:51.996Z,98378.89
2019-04-14T07:40:42.458Z,98376.06
2019-04-14T07:43:37.526Z,98374.45
2019-04-14T07:46:36.948Z,98375.09
2019-04-14T07:49:37.712Z,98383.66
2019-04-14T07:52:26.848Z,98377.73
2019-04-14T07:55:12.685Z,98373.59
2019-04-14T07:57:54.247Z,98373.28
2019-04-14T08:00:32.658Z,98371.55
2019-04-14T08:03:11.655Z,98368.95
2019-04-14T08:05:43.276Z,98374.80
2019-04-14T08:08:14.899Z,98370.36
2019-04-14T08:10:46.560Z,98370.08
2019-04-14T08:13:18.238Z,98369.98
2019-04-14T08:15:49.876Z,98367.91
2019-04-14T08:18:22.470Z,98368.73
2019-04-14T08:20:54.101Z,98364.91
2019-04-14T08:23:25.737Z,98372.20
2019-04-14T08:25:57.392Z,98365.52
2019-04-14T08:28:29.027Z,98365.52
2019-04-14T08:31:00.632Z,98368.55
2019-04-14T08:33:32.248Z,98359.98
2019-04-14T08:36:03.888Z,98371.04
2019-04-14T08:38:35.497Z,98366.30
2019-04-14T08:41:07.110Z,98364.45
2019-04-14T08:43:48.390Z,98367.31
2019-04-14T08:46:41.490Z,98365.78
2019-04-14T08:49:30.028Z,98369.25
2019-04-14T08:52:08.564Z,98368.85
2019-04-14T08:54:53.426Z,98375.34
2019-04-14T08:57:30.508Z,98377.39
2019-04-14T09:00:14.698Z,98373.06
2019-04-14T09:03:05.216Z,98374.05
2019-04-14T09:05:55.027Z,98377.98
2019-04-14T09:08:51.632Z,98381.48
2019-04-14T09:11:29.410Z,98378.58
2019-04-14T09:14:02.615Z,98374.19
2019-04-14T09:16:34.300Z,98378.97
2019-04-14T09:19:11.127Z,98370.76
2019-04-14T09:21:44.765Z,98379.80
2019-04-14T09:24:16.784Z,98371.20
2019-04-14T09:26:58.494Z,98373.66
2019-04-14T09:29:32.751Z,98368.00
2019-04-14T09:32:07.491Z,98371.53
2019-04-14T09:34:40.081Z,98362.69
2019-04-14T09:37:12.833Z,98360.56
2019-04-14T09:39:47.606Z,98366.89
2019-04-14T09:42:19.979Z,98366.98
2019-04-14T09:44:51.876Z,98379.16
2019-04-14T09:47:23.796Z,98377.98
2019-04-14T09:49:55.622Z,98370.84
2019-04-14T09:52:27.350Z,98371.64
2019-04-14T09:54:59.116Z,98367.25
2019-04-14T09:57:30.826Z,98367.70
2019-04-14T10:00:03.573Z,98366.77
2019-04-14T10:02:38.472Z,98366.62
2019-04-14T10:05:11.307Z,98366.02
2019-04-14T10:07:44.519Z,98374.83
2019-04-14T10:10:16.983Z,98363.27
2019-04-14T10:12:48.857Z,98370.55
2019-04-14T10:15:20.466Z,98366.25
2019-04-14T10:17:52.134Z,98365.89
2019-04-14T10:20:23.731Z,98363.00
2019-04-14T10:22:56.473Z,98365.13
2019-04-14T10:25:28.115Z,98356.42
2019-04-14T10:27:59.765Z,98367.86
2019-04-14T10:30:31.392Z,98364.47
2019-04-14T10:33:03.065Z,98374.09
2019-04-14T10:35:34.675Z,98367.91
2019-04-14T10:38:06.373Z,98364.09
2019-04-14T10:40:39.186Z,98366.57
2019-04-14T10:43:10.980Z,98359.62
2019-04-14T10:45:42.552Z,98356.73
2019-04-14T10:48:14.391Z,98359.84
2019-04-14T10:50:46.037Z,98357.81
2019-04-14T10:53:17.706Z,98360.41
2019-04-14T10:55:49.300Z,98359.59
2019-04-14T10:58:21.031Z,98363.58
2019-04-14T11:00:52.838Z,98359.84
2019-04-14T11:03:24.460Z,98367.27
2019-04-14T11:06:13.324Z,98361.87
2019-04-14T11:08:44.986Z,98364.72
2019-04-14T11:11:16.633Z,98353.87
2019-04-14T11:13:48.255Z,98364.66
2019-04-14T11:16:21.086Z,98367.27
2019-04-14T11:18:52.796Z,98358.26
2019-04-14T11:21:24.426Z,98365.26
2019-04-14T11:23:56.049Z,98367.17
2019-04-14T11:26:27.658Z,98364.18
2019-04-14T11:28:59.290Z,98371.41
2019-04-14T11:31:48.643Z,98370.95
2019-04-14T11:34:21.601Z,98368.48
2019-04-14T11:37:11.172Z,98371.66
2019-04-14T11:39:43.626Z,98368.83
2019-04-14T11:42:17.119Z,98371.05
2019-04-14T11:44:49.919Z,98371.39
2019-04-14T11:47:21.648Z,98370.67
2019-04-14T11:49:53.564Z,98368.03
2019-04-14T11:52:25.287Z,98368.88
2019-04-14T11:54:57.013Z,98365.38
2019-04-14T11:57:28.636Z,98372.72
2019-04-14T12:00:07.954Z,98380.57
2019-04-14T12:02:54.699Z,98377.90
2019-04-14T12:05:45.218Z,98380.34
2019-04-14T12:08:29.924Z,98371.80
2019-04-14T12:11:01.593Z,98373.05
2019-04-14T12:13:33.225Z,98372.50
2019-04-14T12:16:05.092Z,98386.18
2019-04-14T12:18:36.739Z,98380.44
2019-04-14T12:21:10.044Z,98381.63
2019-04-14T12:23:41.677Z,98384.14
2019-04-14T12:26:13.392Z,98381.23
2019-04-14T12:28:45.141Z,98385.59
2019-04-14T12:31:17.466Z,98383.34
2019-04-14T12:33:49.177Z,98384.00
2019-04-14T12:36:21.019Z,98375.45
2019-04-14T12:38:54.463Z,98374.86
2019-04-14T12:41:33.218Z,98380.84
2019-04-14T12:44:27.656Z,98382.25
2019-04-14T12:47:16.750Z,98375.28
2019-04-14T12:49:49.718Z,98387.31
2019-04-14T12:52:23.530Z,98378.16
2019-04-14T12:54:55.493Z,98373.66
2019-04-14T12:57:33.871Z,98380.46
2019-04-14T13:00:09.331Z,98380.96
2019-04-14T13:02:44.266Z,98376.54
2019-04-14T13:05:16.090Z,98388.92
2019-04-14T13:07:47.749Z,98385.60
2019-04-14T13:10:19.505Z,98382.80
2019-04-14T13:12:51.084Z,98378.88
2019-04-14T13:15:22.811Z,98374.69
2019-04-14T13:17:54.452Z,98376.44
2019-04-14T13:20:26.114Z,98381.12
2019-04-14T13:22:58.971Z,98387.28
2019-04-14T13:25:30.615Z,98392.02
2019-04-14T13:28:02.218Z,98373.53
2019-04-14T13:30:36.693Z,98379.53
2019-04-14T13:33:08.525Z,98381.92
2019-04-14T13:35:40.183Z,98385.73
2019-04-14T13:38:11.941Z,98386.18
2019-04-14T13:40:43.842Z,98386.13
2019-04-14T13:43:16.684Z,98387.30
2019-04-14T13:45:49.902Z,98394.17
2019-04-14T13:48:21.553Z,98393.05
2019-04-14T13:50:53.185Z,98390.94
2019-04-14T13:53:25.812Z,98394.58
2019-04-14T13:55:57.521Z,98406.92
2019-04-14T13:58:30.349Z,98394.48
2019-04-14T14:01:02.245Z,98397.03
2019-04-14T14:03:33.950Z,98400.63
2019-04-14T14:06:05.616Z,98398.03
2019-04-14T14:08:37.276Z,98403.11
2019-04-14T14:11:27.771Z,98404.77
2019-04-14T14:14:05.256Z,98403.11
2019-04-14T14:16:58.568Z,98402.14
2019-04-14T14:19:38.312Z,98404.34
2019-04-14T14:22:18.933Z,98394.11
2019-04-14T14:24:59.324Z,98394.98
2019-04-14T14:27:31.015Z,98406.74
2019-04-14T14:30:02.625Z,98397.66
2019-04-14T14:32:37.573Z,98399.94
2019-04-14T14:35:09.514Z,98405.65
2019-04-14T14:37:42.973Z,98399.39
2019-04-14T14:40:15.423Z,98411.96
2019-04-14T14:42:47.017Z,98410.59
2019-04-14T14:45:43.571Z,98404.07
2019-04-14T14:48:27.279Z,98405.23
2019-04-14T14:51:06.163Z,98413.52
2019-04-14T14:53:37.922Z,98413.72
2019-04-14T14:56:09.543Z,98413.77
2019-04-14T14:58:41.187Z,98417.27
2019-04-14T15:01:13.155Z,98420.73
2019-04-14T15:03:44.799Z,98418.22
2019-04-14T15:06:16.476Z,98417.23
2019-04-14T15:08:48.142Z,98428.39
2019-04-14T15:11:19.875Z,98423.18
2019-04-14T15:13:51.505Z,98422.78
2019-04-14T15:16:23.221Z,98438.33
2019-04-14T15:18:54.892Z,98433.09
2019-04-14T15:21:26.537Z,98438.86
2019-04-14T15:23:58.305Z,98428.05
2019-04-14T15:26:30.251Z,98443.74
2019-04-14T15:29:01.884Z,98451.81
2019-04-14T15:31:33.525Z,98447.46
2019-04-14T15:34:05.178Z,98445.87
2019-04-14T15:36:37.135Z,98442.67
2019-04-14T15:39:09.891Z,98442.86
2019-04-14T15:41:41.997Z,98434.12
2019-04-14T15:44:13.661Z,98450.66
2019-04-14T15:46:45.324Z,98446.16
2019-04-14T15:49:16.970Z,98449.78
2019-04-14T15:51:48.695Z,98456.31
2019-04-14T15:54:20.349Z,98462.19
2019-04-14T15:57:06.413Z,98459.73
2019-04-14T15:59:56.253Z,98468.91
2019-04-14T16:03:02.248Z,98468.14
2019-04-14T16:05:52.878Z,98473.95
2019-04-14T16:08:29.812Z,98475.64
2019-04-14T16:11:20.275Z,98476.89
2019-04-14T16:14:08.422Z,98483.34
2019-04-14T16:16:59.234Z,98491.37
2019-04-14T16:19:40.225Z,98491.84
2019-04-14T16:22:11.831Z,98490.82
2019-04-14T16:24:43.576Z,98491.94
2019-04-14T16:27:29.387Z,98500.03
2019-04-14T16:30:25.654Z,98499.00
2019-04-14T16:33:17.224Z,98491.56
2019-04-14T16:35:49.104Z,98497.80
2019-04-14T16:38:20.724Z,98501.89
2019-04-14T16:40:52.444Z,98504.31
2019-04-14T16:43:26.229Z,98504.59
2019-04-14T16:45:57.636Z,98504.77
2019-04-14T16:48:29.208Z,98498.75
2019-04-14T16:51:00.980Z,98504.55
2019-04-14T16:53:35.924Z,98503.48
2019-04-14T16:56:19.272Z,98513.23
2019-04-14T16:58:53.529Z,98509.62
2019-04-14T17:01:39.961Z,98520.69
2019-04-14T17:04:12.273Z,98521.78
2019-04-14T17:06:43.912Z,98528.50
2019-04-14T17:09:15.515Z,98524.66
2019-04-14T17:11:48.282Z,98530.30
2019-04-14T17:14:29.895Z,98525.86
2019-04-14T17:17:12.635Z,98533.98
2019-04-14T17:20:03.085Z,98543.58
2019-04-14T17:23:02.941Z,98547.52
2019-04-14T17:25:39.200Z,98547.20
2019-04-14T17:28:32.791Z,98543.25
2019-04-14T17:31:19.879Z,98540.56
2019-04-14T17:34:08.316Z,98543.33
2019-04-14T17:36:58.000Z,98553.85
2019-04-14T17:39:35.333Z,98556.23
2019-04-14T17:42:21.096Z,98556.31
2019-04-14T17:45:14.643Z,98560.59
2019-04-14T17:47:56.166Z,98567.66
2019-04-14T17:50:47.835Z,98570.19
2019-04-14T17:53:26.290Z,98576.87
2019-04-14T17:56:32.192Z,98584.81
2019-04-14T17:59:34.538Z,98587.41
2019-04-14T18:02:23.321Z,98589.70
2019-04-14T18:05:05.621Z,98604.92
2019-04-14T18:07:57.731Z,98598.82
2019-04-14T18:10:41.034Z,98605.36
2019-04-14T18:13:28.132Z,98605.87
2019-04-14T18:16:18.599Z,98610.38
2019-04-14T18:19:08.599Z,98611.13
2019-04-14T18:21:40.224Z,98616.59
2019-04-14T18:24:11.862Z,98619.47
2019-04-14T18:26:43.524Z,98620.95
2019-04-14T18:29:33.574Z,98625.75
2019-04-14T18:32:27.127Z,98631.80
2019-04-14T18:35:29.880Z,98642.53
2019-04-14T18:38:23.426Z,98645.28
2019-04-14T18:41:10.184Z,98654.05
2019-04-14T18:43:58.147Z,98658.42
2019-04-14T18:46:40.535Z,98658.78
2019-04-14T18:49:36.842Z,98662.08
2019-04-14T18:52:17.196Z,98657.86
2019-04-14T18:55:01.690Z,98660.78
2019-04-14T18:57:50.720Z,98663.45
2019-04-14T19:00:43.359Z,98678.16
2019-04-14T19:03:15.422Z,98678.16
2019-04-14T19:05:47.406Z,98679.23
2019-04-14T19:08:19.476Z,98685.05
2019-04-14T19:11:17.643Z,98685.73
2019-04-14T19:13:50.376Z,98700.11
2019-04-14T19:16:38.633Z,98695.29
2019-04-14T19:19:01.887Z,98700.38
2019-04-14T19:21:33.501Z,98703.91
2019-04-14T19:24:05.192Z,98705.50
2019-04-14T19:26:36.990Z,98706.50
2019-04-14T19:29:11.207Z,98711.45
2019-04-14T19:31:43.033Z,98712.06
2019-04-14T19:34:14.632Z,98716.89
2019-04-14T19:36:46.294Z,98716.50
2019-04-14T19:39:18.067Z,98710.62
2019-04-14T19:41:49.717Z,98704.88
2019-04-14T19:44:21.500Z,98706.69
2019-04-14T19:46:53.187Z,98712.27
2019-04-14T19:49:26.329Z,98720.59
2019-04-14T19:51:59.188Z,98720.89
2019-04-14T19:54:30.902Z,98724.35
2019-04-14T19:57:02.533Z,98732.36
2019-04-14T19:59:34.201Z,98724.28
2019-04-14T20:02:05.812Z,98730.59
2019-04-14T20:04:39.144Z,98728.13
2019-04-14T20:07:10.793Z,98725.82
2019-04-14T20:09:44.207Z,98732.47
2019-04-14T20:12:16.488Z,98729.72
2019-04-14T20:14:48.199Z,98725.77
2019-04-14T20:17:37.664Z,98737.04
2019-04-14T20:20:27.548Z,98735.12
2019-04-14T20:23:22.125Z,98733.42
2019-04-14T20:26:14.108Z,98738.31
2019-04-14T20:28:52.770Z,98735.86
2019-04-14T20:31:39.257Z,98736.83
2019-04-14T20:34:11.942Z,98738.89
2019-04-14T20:36:43.695Z,98739.89
2019-04-14T20:39:15.815Z,98734.51
2019-04-14T20:41:47.408Z,98732.95
2019-04-14T20:44:19.332Z,98736.84
2019-04-14T20:46:50.983Z,98747.21
2019-04-14T20:49:22.578Z,98738.00
2019-04-14T20:51:54.335Z,98752.17
2019-04-14T20:54:25.964Z,98748.55
2019-04-14T20:56:57.596Z,98760.84
2019-04-14T20:59:29.219Z,98751.14
2019-04-14T21:02:14.707Z,98756.26
2019-04-14T21:04:57.085Z,98764.50
2019-04-14T21:07:56.351Z,98768.92
2019-04-14T21:10:35.899Z,98764.11
2019-04-14T21:13:44.740Z,98777.06
2019-04-14T21:16:35.210Z,98773.70
2019-04-14T21:19:23.368Z,98779.75
2019-04-14T21:22:09.615Z,98768.92
2019-04-14T21:25:02.920Z,98780.58
2019-04-14T21:27:56.444Z,98785.89
2019-04-14T21:30:49.118Z,98772.69
2019-04-14T21:33:39.575Z,98784.59
2019-04-14T21:36:35.827Z,98783.41
2019-04-14T21:39:17.713Z,98791.19
2019-04-14T21:41:52.331Z,98795.27
2019-04-14T21:44:23.930Z,98794.75
2019-04-14T21:46:55.624Z,98796.52
2019-04-14T21:49:27.213Z,98803.39
2019-04-14T21:52:11.844Z,98795.98
2019-04-14T21:54:44.388Z,98797.81
2019-04-14T21:57:40.715Z,98804.81
2019-04-14T22:00:30.689Z,98806.36
2019-04-14T22:03:21.765Z,98803.61
2019-04-14T22:06:01.568Z,98809.59
2019-04-14T22:08:36.758Z,98817.27
2019-04-14T22:11:14.045Z,98816.03
2019-04-14T22:13:45.639Z,98818.88
2019-04-14T22:16:17.217Z,98813.33
2019-04-14T22:18:49.070Z,98818.75
2019-04-14T22:21:20.672Z,98810.11
2019-04-14T22:24:01.336Z,98805.00
2019-04-14T22:26:26.556Z,98801.45
2019-04-14T22:28:58.263Z,98808.05
2019-04-14T22:31:29.902Z,98812.52
2019-04-14T22:34:01.467Z,98811.75
2019-04-14T22:36:34.169Z,98814.17
2019-04-14T22:39:08.541Z,98809.70
2019-04-14T22:41:41.514Z,98811.00
2019-04-14T22:44:13.106Z,98813.16
2019-04-14T22:46:44.714Z,98806.75
2019-04-14T22:49:16.357Z,98814.05
2019-04-14T22:51:47.947Z,98811.24
2019-04-14T22:54:21.387Z,98817.28
2019-04-14T22:56:53.253Z,98818.05
2019-04-14T22:59:24.850Z,98819.34
2019-04-14T23:02:04.044Z,98822.77
2019-04-14T23:04:53.078Z,98821.78
2019-04-14T23:07:36.264Z,98820.54
2019-04-14T23:10:29.575Z,98820.11
2019-04-14T23:13:08.874Z,98821.89
2019-04-14T23:16:05.206Z,98814.11
2019-04-14T23:18:52.025Z,98817.11
2019-04-14T23:21:42.452Z,98817.34
2019-04-14T23:24:19.407Z,98813.52
2019-04-14T23:26:52.827Z,98819.70
2019-04-14T23:29:24.412Z,98814.23
2019-04-14T23:31:56.340Z,98810.72
2019-04-14T23:34:28.240Z,98806.75
2019-04-14T23:36:59.829Z,98813.48
2019-04-14T23:39:31.428Z,98821.94
2019-04-14T23:42:03.064Z,98818.54
2019-04-14T23:44:34.652Z,98826.33
2019-04-14T23:47:06.291Z,98826.92
2019-04-14T23:49:37.958Z,98826.44
2019-04-14T23:52:09.930Z,98812.22
2019-04-14T23:54:41.503Z,98810.41
2019-04-14T23:57:13.451Z,98812.98
2019-04-14T23:59:45.050Z,98807.70
